createdAt,value
2023-05-18T00:02:26.612Z,79.10
2023-05-18T00:04:54.226Z,78.70
2023-05-18T00:07:21.712Z,78.10
2023-05-18T00:09:49.150Z,78.40
2023-05-18T00:12:16.589Z,77.80
2023-05-18T00:14:44.011Z,77.90
2023-05-18T00:17:11.523Z,78.00
2023-05-18T00:19:40.776Z,77.80
2023-05-18T04:29:04.191Z,94.80
2023-05-18T04:37:18.165Z,94.70
2023-05-18T04:45:20.842Z,94.70
2023-05-18T04:54:03.330Z,94.80
2023-05-18T04:56:30.793Z,94.70
2023-05-18T04:58:59.592Z,94.70
2023-05-18T05:01:27.167Z,94.80
2023-05-18T05:03:55.566Z,94.60
2023-05-18T05:06:23.812Z,94.70
2023-05-18T05:08:51.333Z,94.70
2023-05-18T05:11:18.807Z,94.80
2023-05-18T05:13:46.418Z,94.80
2023-05-18T05:16:13.929Z,95.30
2023-05-18T05:18:41.452Z,94.60
2023-05-18T05:21:10.342Z,94.50
2023-05-18T05:23:37.760Z,94.30
2023-05-18T05:26:05.561Z,94.70
2023-05-18T05:28:33.005Z,94.30
2023-05-18T05:31:00.665Z,94.50
2023-05-18T05:33:28.224Z,94.40
2023-05-18T05:35:55.731Z,94.40
2023-05-18T05:38:23.222Z,94.20
2023-05-18T05:40:50.741Z,94.20
2023-05-18T05:43:18.206Z,94.30
2023-05-18T05:45:45.752Z,94.40
2023-05-18T05:48:13.968Z,94.30
2023-05-18T05:50:41.753Z,94.20
2023-05-18T05:53:09.313Z,94.30
2023-05-18T05:55:41.333Z,94.10
2023-05-18T05:58:10.506Z,94.30
2023-05-18T06:00:38.022Z,94.30
2023-05-18T06:03:05.539Z,94.00
2023-05-18T06:05:33.168Z,93.90
2023-05-18T06:08:00.882Z,94.20
2023-05-18T06:10:28.489Z,93.60
2023-05-18T06:12:56.205Z,93.80
2023-05-18T06:15:23.660Z,94.10
2023-05-18T06:17:51.216Z,93.80
2023-05-18T06:20:18.679Z,93.90
2023-05-18T06:22:47.176Z,93.70
2023-05-18T06:25:14.652Z,93.80
2023-05-18T06:27:42.592Z,93.70
2023-05-18T06:30:11.249Z,93.70
2023-05-18T06:32:38.836Z,94.00
2023-05-18T06:35:07.719Z,93.90
2023-05-18T06:37:35.201Z,94.00
2023-05-18T06:40:04.930Z,93.90
2023-05-18T06:42:32.896Z,93.70
2023-05-18T06:45:00.615Z,93.40
2023-05-18T06:47:28.096Z,93.60
2023-05-18T06:49:55.669Z,93.70
2023-05-18T06:52:24.972Z,93.80
2023-05-18T06:54:53.847Z,93.80
2023-05-18T06:57:21.343Z,93.60
2023-05-18T06:59:53.699Z,93.60
2023-05-18T07:02:21.610Z,93.40
2023-05-18T07:04:49.946Z,93.70
2023-05-18T07:07:17.662Z,93.40
2023-05-18T07:09:45.917Z,93.30
2023-05-18T07:12:13.451Z,93.20
2023-05-18T07:14:40.916Z,92.80
2023-05-18T07:17:08.391Z,93.30
2023-05-18T07:19:36.046Z,92.60
2023-05-18T07:22:04.708Z,92.70
2023-05-18T07:24:32.162Z,92.40
2023-05-18T07:27:01.083Z,91.80
2023-05-18T07:29:30.214Z,91.80
2023-05-18T07:31:57.778Z,92.00
2023-05-18T07:34:27.178Z,91.60
2023-05-18T07:36:55.165Z,91.60
2023-05-18T07:39:28.613Z,91.50
2023-05-18T07:41:57.176Z,91.80
2023-05-18T07:44:25.225Z,92.20
2023-05-18T07:46:52.854Z,91.60
2023-05-18T07:49:23.254Z,91.40
2023-05-18T07:51:52.010Z,90.90
2023-05-18T07:54:19.758Z,90.70
2023-05-18T07:56:47.169Z,90.90
2023-05-18T07:59:14.623Z,90.90
2023-05-18T08:01:45.087Z,90.90
2023-05-18T08:04:12.692Z,90.70
2023-05-18T08:06:40.780Z,90.40
2023-05-18T08:09:08.288Z,90.60
2023-05-18T08:11:36.249Z,90.20
2023-05-18T08:14:03.865Z,90.20
2023-05-18T08:16:34.786Z,89.60
2023-05-18T08:19:02.250Z,90.00
2023-05-18T08:21:30.431Z,89.60
2023-05-18T08:23:57.886Z,89.60
2023-05-18T08:26:27.039Z,89.40
2023-05-18T08:28:55.201Z,88.90
2023-05-18T08:31:22.811Z,88.10
2023-05-18T08:33:50.370Z,88.40
2023-05-18T08:36:17.980Z,88.60
2023-05-18T08:38:45.916Z,88.50
2023-05-18T08:41:29.998Z,88.30
2023-05-18T08:44:50.156Z,88.30
2023-05-18T08:47:18.324Z,86.50
2023-05-18T08:49:50.357Z,86.50
2023-05-18T08:52:22.018Z,86.50
2023-05-18T08:54:53.237Z,85.50
2023-05-18T08:57:23.287Z,86.30
2023-05-18T08:59:54.549Z,85.10
2023-05-18T09:02:22.733Z,85.10
2023-05-18T09:04:50.860Z,85.20
2023-05-18T09:07:20.703Z,85.90
2023-05-18T09:09:48.929Z,85.20
2023-05-18T09:12:19.029Z,86.30
2023-05-18T09:14:46.661Z,86.10
2023-05-18T09:17:14.216Z,85.30
2023-05-18T09:19:41.695Z,86.00
2023-05-18T09:22:09.121Z,84.30
2023-05-18T09:24:38.094Z,84.40
2023-05-18T09:27:06.629Z,84.50
2023-05-18T09:29:34.123Z,83.20
2023-05-18T09:32:08.582Z,83.60
2023-05-18T09:34:45.570Z,83.10
2023-05-18T09:37:16.459Z,81.20
2023-05-18T09:39:44.870Z,82.50
2023-05-18T09:42:12.624Z,82.60
2023-05-18T09:44:41.178Z,82.30
2023-05-18T09:47:10.728Z,82.40
2023-05-18T09:49:38.305Z,81.50
2023-05-18T09:52:09.528Z,81.00
2023-05-18T09:54:37.874Z,81.30
2023-05-18T09:57:10.325Z,82.00
2023-05-18T09:59:38.823Z,79.60
2023-05-18T10:02:08.879Z,80.30
2023-05-18T10:04:41.170Z,80.10
2023-05-18T10:07:17.724Z,79.90
2023-05-18T10:09:46.705Z,79.60
2023-05-18T10:12:18.733Z,80.00
2023-05-18T10:14:47.099Z,79.60
2023-05-18T10:17:17.874Z,78.60
2023-05-18T10:19:46.989Z,78.70
2023-05-18T10:22:19.703Z,77.70
2023-05-18T10:24:52.865Z,78.40
2023-05-18T10:27:28.630Z,79.10
2023-05-18T10:29:59.612Z,78.50
2023-05-18T10:32:29.011Z,78.60
2023-05-18T10:34:57.528Z,78.60
2023-05-18T10:37:26.710Z,78.60
2023-05-18T10:39:56.242Z,77.60
2023-05-18T10:42:26.429Z,78.10
2023-05-18T10:44:54.429Z,77.70
2023-05-18T10:47:24.318Z,77.10
2023-05-18T10:49:53.736Z,76.90
2023-05-18T10:52:21.870Z,74.80
2023-05-18T10:54:49.369Z,75.10
2023-05-18T10:57:21.290Z,74.20
2023-05-18T10:59:48.862Z,73.90
2023-05-18T11:02:19.644Z,73.80
2023-05-18T11:04:48.183Z,72.90
2023-05-18T11:07:16.367Z,73.00
2023-05-18T11:09:44.946Z,74.10
2023-05-18T11:12:20.852Z,74.60
2023-05-18T11:14:55.313Z,73.30
2023-05-18T11:17:25.892Z,74.70
2023-05-18T11:20:09.003Z,74.10
2023-05-18T11:22:58.908Z,73.80
2023-05-18T11:25:28.939Z,73.70
2023-05-18T11:28:08.263Z,73.70
2023-05-18T11:30:40.559Z,73.50
2023-05-18T11:33:32.397Z,73.30
2023-05-18T11:36:13.615Z,72.80
2023-05-18T11:39:11.570Z,72.80
2023-05-18T11:41:44.444Z,72.30
2023-05-18T11:44:22.102Z,72.40
2023-05-18T11:47:11.846Z,74.30
2023-05-18T11:49:48.470Z,73.40
2023-05-18T11:52:25.194Z,73.10
2023-05-18T11:55:00.559Z,72.50
2023-05-18T11:57:40.967Z,72.00
2023-05-18T12:00:12.142Z,71.50
2023-05-18T12:02:44.124Z,73.40
2023-05-18T12:05:12.907Z,71.60
2023-05-18T12:07:41.499Z,72.90
2023-05-18T12:10:15.128Z,71.30
2023-05-18T12:12:43.199Z,70.90
2023-05-18T12:15:12.145Z,71.10
2023-05-18T12:17:50.985Z,71.00
2023-05-18T12:20:25.401Z,70.80
2023-05-18T12:22:55.729Z,71.20
2023-05-18T12:25:28.118Z,69.60
2023-05-18T12:27:57.216Z,69.20
2023-05-18T12:30:35.610Z,68.70
2023-05-18T12:33:04.936Z,69.50
2023-05-18T12:35:33.604Z,69.90
2023-05-18T12:38:02.177Z,69.80
2023-05-18T12:40:44.341Z,68.80
2023-05-18T12:43:13.156Z,68.60
2023-05-18T12:45:41.230Z,69.90
2023-05-18T12:48:12.613Z,69.30
2023-05-18T12:50:51.027Z,69.40
2023-05-18T12:53:19.222Z,69.00
2023-05-18T12:55:57.690Z,68.70
2023-05-18T12:58:25.120Z,69.00
2023-05-18T13:00:52.492Z,69.10
2023-05-18T13:03:24.570Z,68.70
2023-05-18T13:06:09.767Z,69.00
2023-05-18T13:08:37.878Z,69.50
2023-05-18T13:11:14.813Z,69.40
2023-05-18T13:14:08.970Z,69.10
2023-05-18T13:16:45.188Z,68.20
2023-05-18T13:19:21.736Z,67.70
2023-05-18T13:21:57.327Z,68.50
2023-05-18T13:24:24.770Z,68.10
2023-05-18T13:26:52.311Z,68.30
2023-05-18T13:29:19.717Z,68.60
2023-05-18T13:31:47.172Z,67.70
2023-05-18T13:34:14.588Z,68.00
2023-05-18T13:36:42.613Z,67.50
2023-05-18T13:39:10.017Z,67.30
2023-05-18T13:41:37.405Z,66.90
2023-05-18T13:44:04.933Z,68.60
2023-05-18T13:46:32.786Z,67.00
2023-05-18T13:49:00.308Z,66.20
2023-05-18T13:51:27.688Z,66.80
2023-05-18T13:53:55.260Z,67.10
2023-05-18T13:56:22.701Z,67.00
2023-05-18T13:58:50.305Z,66.30
2023-05-18T14:01:18.098Z,66.80
2023-05-18T14:03:45.654Z,67.10
2023-05-18T14:06:16.339Z,67.50
2023-05-18T14:08:43.815Z,67.20
2023-05-18T14:11:11.180Z,67.10
2023-05-18T14:13:38.566Z,67.00
2023-05-18T14:16:07.057Z,66.90
2023-05-18T14:18:34.449Z,67.50
2023-05-18T14:21:03.671Z,67.90
2023-05-18T14:23:31.270Z,68.10
2023-05-18T14:25:58.678Z,67.00
2023-05-18T14:28:26.070Z,67.40
2023-05-18T14:30:53.544Z,67.00
2023-05-18T14:33:20.981Z,67.30
2023-05-18T14:35:48.353Z,67.20
2023-05-18T14:38:15.806Z,67.80
2023-05-18T14:40:43.170Z,66.80
2023-05-18T14:43:10.697Z,67.40
2023-05-18T14:45:38.578Z,67.70
2023-05-18T14:48:06.160Z,67.10
2023-05-18T14:50:35.559Z,67.10
2023-05-18T14:53:04.956Z,67.70
2023-05-18T14:55:32.397Z,67.10
2023-05-18T14:58:02.406Z,67.20
2023-05-18T15:00:30.061Z,68.10
2023-05-18T15:02:58.138Z,67.20
2023-05-18T15:05:25.578Z,67.30
2023-05-18T15:07:53.009Z,67.70
2023-05-18T15:10:23.385Z,67.40
2023-05-18T15:12:51.057Z,67.10
2023-05-18T15:15:18.506Z,67.50
2023-05-18T15:17:45.956Z,67.20
2023-05-18T15:20:13.374Z,67.40
2023-05-18T15:22:41.514Z,67.90
2023-05-18T15:25:09.635Z,68.10
2023-05-18T15:27:38.547Z,67.20
2023-05-18T15:30:11.514Z,66.90
2023-05-18T15:32:45.521Z,66.00
2023-05-18T15:35:12.978Z,66.00
2023-05-18T15:37:40.534Z,66.30
2023-05-18T15:40:09.116Z,66.70
2023-05-18T15:42:36.871Z,66.30
2023-05-18T15:45:05.223Z,66.90
2023-05-18T15:47:33.590Z,67.00
2023-05-18T15:50:04.518Z,67.30
2023-05-18T15:52:32.031Z,67.30
2023-05-18T15:54:59.447Z,67.40
2023-05-18T15:57:26.848Z,68.10
2023-05-18T15:59:54.317Z,67.80
2023-05-18T16:02:23.231Z,67.60
2023-05-18T16:04:52.574Z,67.80
2023-05-18T16:07:20.150Z,67.80
2023-05-18T16:09:48.426Z,67.90
2023-05-18T16:12:15.896Z,68.40
2023-05-18T16:14:43.236Z,68.60
2023-05-18T16:17:10.828Z,68.10
2023-05-18T16:19:38.240Z,68.50
2023-05-18T16:22:05.653Z,68.60
2023-05-18T16:24:33.042Z,68.80
2023-05-18T16:27:00.436Z,68.70
2023-05-18T16:29:27.843Z,69.10
2023-05-18T16:31:55.296Z,68.80
2023-05-18T16:34:22.721Z,68.80
2023-05-18T16:36:50.214Z,68.90
2023-05-18T16:39:17.731Z,69.40
2023-05-18T16:41:45.136Z,69.20
2023-05-18T16:44:12.541Z,69.50
2023-05-18T16:46:40.002Z,69.70
2023-05-18T16:49:07.462Z,69.80
2023-05-18T16:51:34.815Z,69.40
2023-05-18T16:54:02.207Z,69.50
2023-05-18T16:56:29.927Z,69.60
2023-05-18T16:58:57.326Z,69.70
2023-05-18T17:01:28.839Z,69.90
2023-05-18T17:03:57.443Z,70.20
2023-05-18T17:06:26.255Z,70.20
2023-05-18T17:08:58.199Z,70.60
2023-05-18T17:11:27.824Z,70.20
2023-05-18T17:13:55.692Z,70.20
2023-05-18T17:16:23.623Z,69.90
2023-05-18T17:18:51.406Z,70.40
2023-05-18T17:21:18.849Z,70.10
2023-05-18T17:23:46.422Z,70.00
2023-05-18T17:26:13.820Z,69.90
2023-05-18T17:28:41.425Z,69.90
2023-05-18T17:31:08.862Z,70.30
2023-05-18T17:33:36.241Z,69.70
2023-05-18T17:36:03.873Z,69.70
2023-05-18T17:38:31.311Z,69.70
2023-05-18T17:40:58.723Z,69.30
2023-05-18T17:43:26.116Z,69.40
2023-05-18T17:45:53.501Z,69.40
2023-05-18T17:48:20.880Z,69.60
2023-05-18T17:50:48.286Z,69.50
2023-05-18T17:53:17.193Z,69.80
2023-05-18T17:55:44.899Z,70.20
2023-05-18T17:58:12.332Z,70.70
2023-05-18T18:00:40.514Z,70.70
2023-05-18T18:03:08.163Z,70.90
2023-05-18T18:05:36.215Z,70.90
2023-05-18T18:08:03.707Z,70.80
2023-05-18T18:10:32.090Z,70.90
2023-05-18T18:12:59.732Z,70.80
2023-05-18T18:15:29.086Z,70.90
2023-05-18T18:17:56.715Z,71.10
2023-05-18T18:20:24.361Z,71.20
2023-05-18T18:22:52.632Z,71.30
2023-05-18T18:25:20.123Z,71.20
2023-05-18T18:27:47.599Z,71.60
2023-05-18T18:30:15.604Z,71.40
2023-05-18T18:32:43.195Z,71.30
2023-05-18T18:35:10.948Z,71.20
2023-05-18T18:37:38.593Z,71.10
2023-05-18T18:40:08.939Z,71.30
2023-05-18T18:42:36.495Z,71.50
2023-05-18T18:45:04.906Z,71.60
2023-05-18T18:47:32.553Z,71.60
2023-05-18T18:50:00.011Z,71.40
2023-05-18T18:52:27.468Z,71.40
2023-05-18T18:54:54.897Z,71.10
2023-05-18T18:57:22.369Z,70.90
2023-05-18T18:59:50.308Z,70.90
2023-05-18T19:02:19.220Z,70.80
2023-05-18T19:04:46.725Z,70.90
2023-05-18T19:07:14.183Z,70.70
2023-05-18T19:09:41.715Z,70.80
2023-05-18T19:12:10.058Z,71.10
2023-05-18T19:14:37.832Z,71.30
2023-05-18T19:17:05.782Z,71.30
2023-05-18T19:19:33.582Z,71.50
2023-05-18T19:22:01.038Z,71.60
2023-05-18T19:24:28.489Z,71.40
2023-05-18T19:26:56.851Z,71.60
2023-05-18T19:29:27.041Z,71.60
2023-05-18T19:31:56.872Z,72.40
2023-05-18T19:34:24.621Z,71.70
2023-05-18T19:36:53.402Z,71.90
2023-05-18T19:39:20.956Z,71.90
2023-05-18T19:41:48.469Z,71.70
2023-05-18T19:44:16.225Z,71.60
2023-05-18T19:46:43.930Z,71.50
2023-05-18T19:49:11.624Z,71.60
2023-05-18T19:51:39.132Z,71.40
2023-05-18T19:54:06.749Z,71.60
2023-05-18T19:56:36.463Z,71.80
2023-05-18T19:59:04.008Z,71.80
2023-05-18T20:01:32.395Z,71.90
2023-05-18T20:04:00.376Z,71.90
2023-05-18T20:06:32.539Z,71.90
2023-05-18T20:09:01.552Z,72.50
2023-05-18T20:11:29.415Z,72.10
2023-05-18T20:13:56.992Z,72.30
2023-05-18T20:16:26.447Z,72.40
2023-05-18T20:18:54.134Z,71.80
2023-05-18T20:21:21.793Z,71.70
2023-05-18T20:23:49.350Z,72.50
2023-05-18T20:26:17.257Z,71.90
2023-05-18T20:28:44.848Z,72.30
2023-05-18T20:31:12.458Z,71.80
2023-05-18T20:33:40.322Z,71.60
2023-05-18T20:36:09.149Z,71.70
2023-05-18T20:38:38.891Z,71.70
2023-05-18T20:41:08.152Z,71.30
2023-05-18T20:43:37.831Z,71.20
2023-05-18T20:46:05.927Z,71.00
2023-05-18T20:48:33.753Z,70.80
2023-05-18T20:51:02.158Z,70.70
2023-05-18T20:53:29.767Z,70.70
2023-05-18T20:56:01.269Z,70.80
2023-05-18T20:58:28.989Z,70.30
2023-05-18T21:00:56.516Z,70.40
2023-05-18T21:03:24.167Z,70.40
2023-05-18T21:05:52.001Z,70.50
2023-05-18T21:08:19.480Z,70.60
2023-05-18T21:10:47.044Z,70.40
2023-05-18T21:13:15.183Z,70.40
2023-05-18T21:15:42.798Z,70.60
2023-05-18T21:18:10.635Z,70.80
2023-05-18T21:20:38.190Z,70.70
2023-05-18T21:23:05.846Z,70.70
2023-05-18T21:25:33.340Z,71.10
2023-05-18T21:28:00.952Z,70.90
2023-05-18T21:30:28.483Z,70.70
2023-05-18T21:32:56.063Z,71.00
2023-05-18T21:35:23.658Z,71.00
2023-05-18T21:37:51.225Z,71.00
2023-05-18T21:40:18.739Z,70.90
2023-05-18T21:42:47.247Z,71.10
2023-05-18T21:45:14.723Z,70.90
2023-05-18T21:47:42.312Z,71.10
2023-05-18T21:50:10.672Z,71.10
2023-05-18T21:52:38.119Z,71.40
2023-05-18T21:55:07.092Z,71.50
2023-05-18T21:57:35.431Z,71.60
2023-05-18T22:00:03.718Z,71.60
2023-05-18T22:02:31.273Z,71.40
2023-05-18T22:04:58.776Z,71.60
2023-05-18T22:07:26.250Z,71.90
2023-05-18T22:09:53.842Z,72.40
2023-05-18T22:12:21.914Z,72.00
2023-05-18T22:14:49.489Z,72.10
2023-05-18T22:17:19.074Z,72.60
2023-05-18T22:19:46.594Z,72.30
2023-05-18T22:22:22.977Z,72.30
2023-05-18T22:24:56.498Z,72.50
2023-05-18T22:27:24.037Z,72.50
2023-05-18T22:29:51.557Z,72.80
2023-05-18T22:32:19.500Z,72.90
2023-05-18T22:34:47.042Z,72.90
2023-05-18T22:37:14.580Z,72.90
2023-05-18T22:39:42.073Z,73.10
2023-05-18T22:42:09.624Z,73.40
2023-05-18T22:44:37.057Z,73.30
2023-05-18T22:47:04.841Z,73.30
2023-05-18T22:49:32.730Z,73.40
2023-05-18T22:52:00.188Z,73.60
2023-05-18T22:54:27.737Z,73.60
2023-05-18T22:56:55.480Z,73.80
2023-05-18T22:59:23.056Z,73.80
2023-05-18T23:01:54.692Z,74.10
2023-05-18T23:04:22.488Z,74.30
2023-05-18T23:06:51.548Z,73.90
2023-05-18T23:09:20.278Z,73.80
2023-05-18T23:11:48.626Z,73.90
2023-05-18T23:14:16.238Z,74.00
2023-05-18T23:16:43.818Z,74.40
2023-05-18T23:19:14.733Z,74.70
2023-05-18T23:21:42.277Z,74.50
2023-05-18T23:24:12.410Z,74.30
2023-05-18T23:26:44.354Z,74.20
2023-05-18T23:29:12.078Z,74.00
2023-05-18T23:31:39.621Z,73.90
2023-05-18T23:34:07.668Z,74.00
2023-05-18T23:36:35.690Z,74.30
2023-05-18T23:39:04.134Z,74.60
2023-05-18T23:41:34.169Z,74.80
2023-05-18T23:44:02.453Z,74.60
2023-05-18T23:46:31.873Z,75.00
2023-05-18T23:49:00.080Z,74.90
2023-05-18T23:51:33.543Z,75.00
2023-05-18T23:54:03.193Z,74.80
2023-05-18T23:56:33.335Z,74.90
